This is the latest recevied weather packets stored in our database for station/object K6CRS-15. If no packets are shown the sender has not sent any weather packets the latest 10 day(s).
| Time | Temp. | Humidity | Pressure | Rain* | Wind** | Luminosity | Snow |
|---|---|---|---|---|---|---|---|
| 1777981544 | 8.89° C | 87% | 1012.9 hPa | 0 mm | - | - | - |
| 1777969853 | 11.11° C | 85% | 1014 hPa | 0 mm | - | - | - |
| 1777968043 | 11.11° C | 85% | 1014.4 hPa | 0 mm | - | - | - |
| 1777966245 | 11.11° C | 85% | 1014.4 hPa | 0 mm | - | - | - |
| 1777964447 | 11.67° C | 83% | 1014.3 hPa | 0 mm | - | - | - |
| 1777959949 | 11.67° C | 85% | 1014.5 hPa | 0 mm | - | - | - |
| 1777958144 | 12.22° C | 85% | 1014.6 hPa | 0 mm | - | - | - |
| 1777956346 | 12.22° C | 83% | 1014.7 hPa | 0 mm | - | - | - |
| 1777952745 | 12.78° C | 82% | 1014.4 hPa | 0 mm | - | - | - |
| 1777951852 | 12.78° C | 81% | 1014.2 hPa | 0 mm | - | - | - |
| 1777949143 | 13.33° C | 81% | 1013.9 hPa | 0 mm | - | - | - |
| 1777936549 | 16.67° C | 63% | 1013.9 hPa | 0 mm | - | - | - |
| 1777934743 | 17.22° C | 58% | 1014.2 hPa | 0 mm | - | - | - |
| 1777928445 | 18.89° C | 50% | 1014.6 hPa | 0 mm | - | - | - |
| 1777927546 | 18.33° C | 47% | 1014.4 hPa | 0 mm | - | - | - |
| 1777923044 | 17.78° C | 54% | 1014.8 hPa | 0 mm | - | - | - |
| 1777919445 | 17.22° C | 57% | 1015 hPa | 0 mm | - | - | - |
| 1777908668 | 13.33° C | 77% | 1014.6 hPa | 0 mm | - | - | - |
| 1777905945 | 11.67° C | 85% | 1014.6 hPa | 0 mm | - | - | - |
| 1777902348 | 10° C | 91% | 1014.5 hPa | 0 mm | - | - | - |
| 1777899644 | 10° C | 91% | 1014.1 hPa | 0 mm | - | - | - |
| 1777898743 | 10.56° C | 90% | 1014.2 hPa | 0 mm | - | - | - |
| 1777897850 | 10.56° C | 89% | 1014.2 hPa | 0 mm | - | - | - |
| 1777894247 | 11.11° C | 87% | 1014 hPa | 0 mm | - | - | - |
| 1777889767 | 11.67° C | 88% | 1013.7 hPa | 0 mm | - | - | - |
* Rain latest hour (hover to see other rain measurements)
** Current wind speed in m/s (hover to see current wind gust speed)